createdAt,value
2019-04-21T00:00:31.853Z,6.80
2019-04-21T00:03:07.351Z,6.80
2019-04-21T00:05:49.869Z,6.90
2019-04-21T00:08:27.117Z,6.90
2019-04-21T00:10:47.988Z,7.00
2019-04-21T00:13:13.501Z,7.00
2019-04-21T00:15:33.166Z,7.10
2019-04-21T00:18:03.624Z,6.90
2019-04-21T00:20:37.602Z,6.80
2019-04-21T00:23:13.136Z,6.70
2019-04-21T00:25:38.801Z,6.80
2019-04-21T00:28:20.151Z,6.80
2019-04-21T00:30:44.360Z,6.80
2019-04-21T00:33:03.311Z,6.70
2019-04-21T00:35:26.008Z,6.40
2019-04-21T00:38:15.390Z,6.30
2019-04-21T00:40:42.094Z,6.20
2019-04-21T00:43:13.585Z,6.10
2019-04-21T00:45:37.565Z,6.10
2019-04-21T00:48:12.991Z,6.10
2019-04-21T00:50:53.263Z,5.90
2019-04-21T00:53:24.556Z,5.90
2019-04-21T00:55:49.996Z,5.90
2019-04-21T00:58:24.147Z,5.90
2019-04-21T01:00:51.382Z,5.80
2019-04-21T01:03:20.704Z,5.80
2019-04-21T01:05:51.699Z,5.80
2019-04-21T01:08:19.970Z,5.70
2019-04-21T01:10:38.378Z,5.70
2019-04-21T01:13:21.346Z,5.60
2019-04-21T01:15:49.123Z,5.60
2019-04-21T01:18:16.556Z,5.50
2019-04-21T01:20:23.720Z,5.50
2019-04-21T01:22:51.578Z,5.50
2019-04-21T01:25:25.824Z,5.50
2019-04-21T01:28:04.965Z,5.50
2019-04-21T01:30:39.906Z,5.40
2019-04-21T01:33:08.206Z,5.30
2019-04-21T01:35:33.754Z,5.30
2019-04-21T01:38:06.785Z,5.20
2019-04-21T01:40:37.630Z,5.30
2019-04-21T01:43:03.565Z,5.40
2019-04-21T01:45:34.171Z,5.40
2019-04-21T01:48:01.159Z,5.50
2019-04-21T01:50:31.563Z,5.50
2019-04-21T01:53:12.603Z,5.50
2019-04-21T01:56:00.601Z,5.50
2019-04-21T01:58:19.736Z,5.40
2019-04-21T02:00:56.736Z,5.30
2019-04-21T02:03:48.350Z,5.30
2019-04-21T02:06:08.763Z,5.10
2019-04-21T02:08:27.709Z,5.00
2019-04-21T02:11:05.154Z,4.90
2019-04-21T02:13:23.230Z,4.80
2019-04-21T02:16:05.511Z,4.90
2019-04-21T02:18:27.601Z,4.90
2019-04-21T02:20:47.606Z,4.90
2019-04-21T02:23:34.351Z,4.80
2019-04-21T02:25:57.361Z,4.70
2019-04-21T02:28:30.855Z,4.70
2019-04-21T02:31:18.164Z,4.80
2019-04-21T02:33:39.126Z,4.80
2019-04-21T02:36:15.443Z,4.80
2019-04-21T02:40:57.396Z,4.60
2019-04-21T02:43:24.982Z,4.70
2019-04-21T02:46:04.333Z,4.60
2019-04-21T02:48:43.330Z,4.60
2019-04-21T02:51:17.461Z,4.60
2019-04-21T02:53:30.413Z,4.60
2019-04-21T02:55:51.274Z,4.50
2019-04-21T02:58:35.151Z,4.40
2019-04-21T03:01:32.061Z,4.40
2019-04-21T03:04:11.334Z,4.40
2019-04-21T03:07:01.620Z,4.40
2019-04-21T03:09:31.444Z,4.20
2019-04-21T03:12:05.583Z,4.10
2019-04-21T03:16:47.045Z,4.10
2019-04-21T03:19:29.866Z,4.00
2019-04-21T03:21:57.323Z,3.80
2019-04-21T03:24:17.585Z,3.80
2019-04-21T03:27:03.505Z,3.90
2019-04-21T03:29:19.802Z,3.90
2019-04-21T03:34:48.104Z,3.90
2019-04-21T03:39:15.933Z,3.90
2019-04-21T03:41:48.442Z,3.80
2019-04-21T03:44:16.870Z,3.70
2019-04-21T03:49:20.805Z,3.70
2019-04-21T03:54:07.915Z,3.80
2019-04-21T03:57:01.398Z,3.70
2019-04-21T03:59:03.915Z,3.70
2019-04-21T04:04:34.196Z,3.70
2019-04-21T04:10:03.591Z,3.70
2019-04-21T04:12:19.403Z,3.50
2019-04-21T04:14:50.234Z,3.40
2019-04-21T04:17:25.764Z,3.30
2019-04-21T04:22:31.409Z,3.40
2019-04-21T04:25:03.517Z,3.30
2019-04-21T04:29:51.354Z,3.70
2019-04-21T04:35:02.186Z,3.90
2019-04-21T04:37:21.492Z,4.00
2019-04-21T04:40:05.895Z,3.90
2019-04-21T04:42:42.754Z,3.90
2019-04-21T04:45:05.691Z,3.90
2019-04-21T04:47:30.117Z,3.80
2019-04-21T04:49:54.950Z,3.80
2019-04-21T04:52:38.413Z,3.80
2019-04-21T04:54:55.824Z,3.80
2019-04-21T04:57:49.108Z,3.90
2019-04-21T05:00:01.794Z,3.90
2019-04-21T05:04:56.450Z,3.90
2019-04-21T05:07:27.341Z,4.00
2019-04-21T05:10:01.567Z,4.10
2019-04-21T05:12:17.524Z,4.10
2019-04-21T05:14:46.084Z,4.10
2019-04-21T05:17:26.661Z,4.30
2019-04-21T05:19:53.869Z,4.40
2019-04-21T05:22:20.052Z,4.50
2019-04-21T05:24:33.312Z,4.70
2019-04-21T05:26:59.571Z,4.90
2019-04-21T05:29:38.862Z,5.20
2019-04-21T05:32:26.482Z,5.30
2019-04-21T05:34:55.684Z,5.60
2019-04-21T05:37:35.114Z,5.70
2019-04-21T05:40:03.135Z,6.00
2019-04-21T05:42:35.318Z,6.40
2019-04-21T05:50:16.729Z,7.80
2019-04-21T05:52:48.978Z,8.70
2019-04-21T05:55:26.159Z,9.30
2019-04-21T05:57:54.064Z,10.10
2019-04-21T06:00:23.677Z,10.70
2019-04-21T06:02:59.221Z,10.90
2019-04-21T06:07:55.401Z,11.40
2019-04-21T06:10:27.129Z,11.90
2019-04-21T06:13:03.984Z,12.70
2019-04-21T06:15:34.873Z,13.20
2019-04-21T06:17:56.341Z,13.70
2019-04-21T06:20:28.798Z,14.20
2019-04-21T06:22:56.572Z,14.50
2019-04-21T06:27:59.001Z,14.50
2019-04-21T06:30:30.895Z,14.50
2019-04-21T06:32:52.188Z,14.20
2019-04-21T06:38:54.449Z,13.90
2019-04-21T06:41:13.471Z,14.70
2019-04-21T06:43:48.434Z,15.10
2019-04-21T06:46:12.081Z,15.20
2019-04-21T06:48:40.957Z,15.50
2019-04-21T06:51:13.668Z,16.00
2019-04-21T06:53:44.907Z,16.10
2019-04-21T06:56:05.023Z,16.40
2019-04-21T06:58:39.998Z,16.70
2019-04-21T07:01:09.212Z,16.80
2019-04-21T07:03:38.798Z,16.70
2019-04-21T07:06:08.021Z,17.00
2019-04-21T07:08:37.018Z,16.90
2019-04-21T07:11:04.017Z,16.90
2019-04-21T07:13:30.888Z,16.90
2019-04-21T07:16:04.637Z,16.90
2019-04-21T07:18:37.478Z,16.90
2019-04-21T07:20:59.948Z,17.10
2019-04-21T07:23:31.627Z,17.30
2019-04-21T07:25:58.227Z,17.70
2019-04-21T07:28:25.971Z,17.90
2019-04-21T07:31:02.040Z,18.30
2019-04-21T07:35:59.422Z,18.40
2019-04-21T07:38:21.182Z,18.50
2019-04-21T07:40:45.862Z,18.60
2019-04-21T07:43:16.695Z,18.90
2019-04-21T07:45:45.923Z,19.10
2019-04-21T07:48:43.284Z,18.60
2019-04-21T07:51:33.957Z,18.40
2019-04-21T07:54:08.666Z,18.60
2019-04-21T07:56:16.190Z,18.90
2019-04-21T07:59:12.731Z,19.20
2019-04-21T08:04:03.662Z,19.30
2019-04-21T08:06:26.812Z,19.60
2019-04-21T08:08:52.924Z,19.40
2019-04-21T08:11:24.356Z,19.30
2019-04-21T08:16:25.005Z,18.30
2019-04-21T08:18:55.009Z,18.80
2019-04-21T08:21:24.618Z,18.50
2019-04-21T08:23:51.333Z,18.70
2019-04-21T08:26:24.620Z,19.30
2019-04-21T08:28:56.398Z,19.40
2019-04-21T08:31:24.090Z,19.60
2019-04-21T08:33:55.380Z,19.10
2019-04-21T08:36:25.165Z,19.20
2019-04-21T08:38:48.469Z,19.30
2019-04-21T08:41:31.575Z,19.40
2019-04-21T08:43:48.225Z,19.00
2019-04-21T08:46:20.148Z,18.60
2019-04-21T08:48:49.461Z,18.90
2019-04-21T08:53:48.928Z,18.90
2019-04-21T08:56:21.357Z,19.70
2019-04-21T08:59:17.808Z,19.80
2019-04-21T09:02:02.962Z,20.20
2019-04-21T09:04:29.234Z,20.20
2019-04-21T09:07:07.800Z,20.40
2019-04-21T09:09:29.156Z,20.30
2019-04-21T09:11:54.164Z,20.40
2019-04-21T09:14:28.829Z,20.50
2019-04-21T09:16:51.390Z,20.30
2019-04-21T09:19:35.372Z,20.50
2019-04-21T09:21:59.462Z,20.60
2019-04-21T09:24:21.786Z,20.20
2019-04-21T09:26:52.703Z,20.20
2019-04-21T09:29:11.861Z,19.80
2019-04-21T09:31:39.181Z,19.60
2019-04-21T09:34:04.536Z,19.90
2019-04-21T09:36:40.164Z,20.10
2019-04-21T09:39:08.748Z,20.20
2019-04-21T09:41:30.920Z,20.20
2019-04-21T09:43:59.726Z,20.20
2019-04-21T09:46:27.890Z,20.30
2019-04-21T09:49:00.850Z,20.50
2019-04-21T09:51:25.604Z,20.90
2019-04-21T09:54:00.924Z,21.00
2019-04-21T09:56:31.513Z,20.90
2019-04-21T09:58:57.364Z,21.30
2019-04-21T10:01:28.847Z,21.50
2019-04-21T10:03:56.090Z,21.30
2019-04-21T10:06:20.679Z,21.20
2019-04-21T10:08:58.341Z,21.30
2019-04-21T10:11:21.084Z,21.20
2019-04-21T10:13:50.592Z,21.20
2019-04-21T10:16:29.826Z,21.50
2019-04-21T10:18:57.329Z,21.90
2019-04-21T10:21:26.426Z,22.00
2019-04-21T10:23:54.253Z,21.80
2019-04-21T10:26:22.228Z,21.70
2019-04-21T10:28:50.972Z,22.10
2019-04-21T10:31:18.664Z,22.40
2019-04-21T10:33:46.249Z,22.60
2019-04-21T10:36:15.105Z,22.80
2019-04-21T10:38:47.858Z,22.50
2019-04-21T10:41:11.894Z,22.70
2019-04-21T10:43:40.887Z,22.90
2019-04-21T10:46:08.783Z,22.80
2019-04-21T10:48:37.867Z,22.80
2019-04-21T10:51:05.404Z,22.80
2019-04-21T10:53:34.860Z,22.90
2019-04-21T10:56:13.531Z,23.00
2019-04-21T10:58:38.190Z,22.70
2019-04-21T11:01:20.903Z,22.80
2019-04-21T11:04:14.288Z,22.60
2019-04-21T11:06:36.871Z,22.50
2019-04-21T11:09:08.825Z,22.40
2019-04-21T11:11:37.676Z,22.40
2019-04-21T11:14:06.583Z,22.70
2019-04-21T11:16:35.283Z,22.90
2019-04-21T11:19:03.955Z,22.90
2019-04-21T11:21:31.472Z,22.50
2019-04-21T11:23:58.739Z,22.20
2019-04-21T11:26:25.932Z,21.90
2019-04-21T11:28:54.807Z,22.40
2019-04-21T11:31:22.945Z,22.40
2019-04-21T11:33:51.216Z,22.40
2019-04-21T11:36:19.493Z,22.40
2019-04-21T11:39:06.064Z,22.50
2019-04-21T11:41:21.645Z,22.70
2019-04-21T11:43:49.106Z,22.80
2019-04-21T11:46:16.444Z,22.90
2019-04-21T11:48:44.082Z,23.00
2019-04-21T11:51:13.016Z,23.10
2019-04-21T11:53:41.147Z,23.10
2019-04-21T11:56:09.020Z,23.20
2019-04-21T11:58:36.570Z,23.20
2019-04-21T12:01:05.623Z,23.40
2019-04-21T12:03:33.635Z,23.60
2019-04-21T12:06:01.596Z,23.90
2019-04-21T12:08:36.208Z,24.00
2019-04-21T12:10:59.625Z,23.80
2019-04-21T12:13:27.905Z,23.70
2019-04-21T12:15:57.017Z,24.20
2019-04-21T12:18:26.656Z,24.40
2019-04-21T12:20:53.791Z,24.80
2019-04-21T12:23:22.524Z,24.10
2019-04-21T12:25:51.460Z,23.90
2019-04-21T12:28:19.706Z,24.00
2019-04-21T12:30:51.620Z,24.20
2019-04-21T12:33:47.808Z,24.60
2019-04-21T12:36:15.885Z,25.00
2019-04-21T12:38:51.941Z,24.40
2019-04-21T12:41:14.797Z,24.50
2019-04-21T12:43:42.634Z,24.70
2019-04-21T12:46:10.272Z,25.20
2019-04-21T12:48:38.015Z,25.30
2019-04-21T12:51:06.100Z,25.40
2019-04-21T12:53:33.989Z,24.60
2019-04-21T12:56:02.139Z,23.70
2019-04-21T12:58:29.540Z,23.60
2019-04-21T13:00:56.808Z,22.90
2019-04-21T13:03:25.526Z,22.70
2019-04-21T13:05:53.766Z,22.80
2019-04-21T13:08:21.751Z,22.30
2019-04-21T13:10:49.616Z,22.60
2019-04-21T13:13:17.667Z,22.20
2019-04-21T13:15:45.332Z,22.00
2019-04-21T13:18:14.230Z,21.90
2019-04-21T13:20:42.297Z,22.20
2019-04-21T13:23:10.141Z,22.70
2019-04-21T13:25:38.066Z,23.10
2019-04-21T13:28:06.879Z,23.60
2019-04-21T13:30:34.333Z,23.90
2019-04-21T13:33:02.944Z,24.60
2019-04-21T13:35:30.964Z,24.00
2019-04-21T13:37:58.513Z,23.70
2019-04-21T13:40:56.930Z,24.10
2019-04-21T13:43:14.815Z,24.10
2019-04-21T13:45:43.608Z,24.50
2019-04-21T13:48:12.654Z,24.70
2019-04-21T13:50:41.406Z,25.10
2019-04-21T13:53:09.112Z,25.30
2019-04-21T13:55:37.430Z,24.40
2019-04-21T13:58:06.371Z,24.20
2019-04-21T14:00:33.855Z,24.10
2019-04-21T14:03:02.825Z,23.30
2019-04-21T14:05:30.659Z,23.10
2019-04-21T14:07:58.192Z,23.40
2019-04-21T14:10:25.872Z,23.80
2019-04-21T14:12:54.214Z,24.50
2019-04-21T14:15:22.200Z,24.00
2019-04-21T14:17:50.816Z,23.60
2019-04-21T14:20:19.525Z,23.70
2019-04-21T14:22:46.816Z,23.70
2019-04-21T14:25:15.338Z,23.50
2019-04-21T14:27:44.299Z,23.10
2019-04-21T14:30:12.756Z,23.00
2019-04-21T14:32:40.205Z,22.80
2019-04-21T14:35:09.055Z,22.10
2019-04-21T14:37:36.429Z,21.50
2019-04-21T14:40:08.960Z,21.20
2019-04-21T14:42:36.001Z,21.00
2019-04-21T14:45:05.443Z,20.70
2019-04-21T14:48:01.203Z,21.00
2019-04-21T14:50:44.213Z,21.30
2019-04-21T14:53:17.960Z,21.30
2019-04-21T14:55:46.204Z,21.60
2019-04-21T14:58:13.413Z,21.70
2019-04-21T15:00:53.043Z,21.70
2019-04-21T15:03:21.627Z,21.70
2019-04-21T15:05:49.406Z,22.00
2019-04-21T15:08:17.281Z,22.20
2019-04-21T15:10:45.194Z,22.20
2019-04-21T15:13:13.950Z,21.80
2019-04-21T15:15:41.515Z,21.60
2019-04-21T15:18:08.737Z,21.70
2019-04-21T15:20:36.545Z,21.80
2019-04-21T15:23:04.286Z,21.90
2019-04-21T15:25:32.347Z,21.70
2019-04-21T15:28:00.866Z,21.60
2019-04-21T15:30:28.823Z,21.80
2019-04-21T15:32:56.365Z,21.60
2019-04-21T15:35:24.930Z,21.70
2019-04-21T15:37:53.650Z,21.90
2019-04-21T15:40:29.989Z,21.90
2019-04-21T15:42:50.557Z,22.10
2019-04-21T15:45:18.750Z,21.90
2019-04-21T15:47:47.473Z,21.30
2019-04-21T15:50:17.825Z,21.20
2019-04-21T15:52:45.654Z,21.10
2019-04-21T15:55:18.895Z,21.20
2019-04-21T15:58:10.400Z,21.50
2019-04-21T16:00:49.675Z,21.40
2019-04-21T16:03:18.402Z,21.30
2019-04-21T16:05:46.736Z,21.50
2019-04-21T16:08:14.265Z,21.60
2019-04-21T16:10:48.966Z,21.40
2019-04-21T16:13:11.796Z,21.30
2019-04-21T16:15:40.763Z,21.40
2019-04-21T16:18:08.355Z,21.50
2019-04-21T16:20:35.633Z,21.30
2019-04-21T16:23:04.466Z,21.20
2019-04-21T16:25:32.789Z,21.20
2019-04-21T16:28:01.425Z,21.30
2019-04-21T16:30:30.733Z,21.20
2019-04-21T16:32:58.276Z,21.20
2019-04-21T16:35:26.752Z,21.00
2019-04-21T16:37:57.109Z,20.70
2019-04-21T16:40:23.638Z,20.70
2019-04-21T16:42:52.071Z,20.70
2019-04-21T16:45:21.006Z,20.50
2019-04-21T16:47:51.739Z,20.70
2019-04-21T16:50:19.405Z,21.00
2019-04-21T16:52:52.230Z,20.90
2019-04-21T16:55:28.886Z,21.10
2019-04-21T16:58:20.594Z,20.90
2019-04-21T17:00:57.338Z,20.70
2019-04-21T17:03:18.821Z,20.70
2019-04-21T17:05:46.200Z,20.70
2019-04-21T17:08:15.684Z,20.60
2019-04-21T17:10:57.017Z,20.70
2019-04-21T17:13:13.930Z,20.70
2019-04-21T17:15:56.663Z,20.50
2019-04-21T17:18:26.804Z,20.50
2019-04-21T17:20:46.631Z,20.60
2019-04-21T17:23:09.502Z,20.50
2019-04-21T17:25:37.098Z,20.50
2019-04-21T17:28:05.839Z,20.50
2019-04-21T17:30:34.686Z,20.30
2019-04-21T17:33:03.453Z,20.00
2019-04-21T17:35:31.184Z,19.90
2019-04-21T17:37:58.557Z,19.70
2019-04-21T17:40:26.611Z,19.60
2019-04-21T17:43:02.090Z,19.40
2019-04-21T17:45:23.585Z,19.00
2019-04-21T17:47:59.361Z,18.80
2019-04-21T17:50:33.591Z,18.30
2019-04-21T17:53:10.568Z,18.00
2019-04-21T17:55:38.625Z,17.60
2019-04-21T17:58:25.000Z,17.40
2019-04-21T18:01:12.979Z,17.30
2019-04-21T18:03:38.997Z,17.10
2019-04-21T18:05:50.291Z,17.10
2019-04-21T18:08:23.187Z,17.00
2019-04-21T18:10:50.361Z,16.80
2019-04-21T18:13:11.613Z,16.70
2019-04-21T18:15:49.348Z,16.50
2019-04-21T18:18:05.160Z,16.60
2019-04-21T18:20:35.391Z,16.70
2019-04-21T18:23:36.238Z,16.60
2019-04-21T18:26:01.644Z,16.10
2019-04-21T18:28:23.796Z,15.60
2019-04-21T18:30:56.670Z,15.40
2019-04-21T18:33:30.269Z,15.40
2019-04-21T18:36:21.340Z,15.30
2019-04-21T18:39:12.183Z,15.30
2019-04-21T18:41:34.492Z,15.30
2019-04-21T18:47:14.748Z,14.90
2019-04-21T18:49:40.929Z,14.60
2019-04-21T18:52:24.566Z,14.30
2019-04-21T18:55:01.207Z,14.20
2019-04-21T18:57:24.980Z,14.00
2019-04-21T18:59:49.107Z,13.90
2019-04-21T19:02:20.752Z,13.90
2019-04-21T19:04:48.325Z,14.00
2019-04-21T19:07:26.557Z,13.80
2019-04-21T19:10:14.859Z,13.70
2019-04-21T19:12:50.683Z,13.70
2019-04-21T19:14:57.997Z,13.70
2019-04-21T19:18:14.972Z,13.60
2019-04-21T19:20:12.939Z,13.70
2019-04-21T19:22:32.536Z,13.60
2019-04-21T19:25:08.437Z,13.60
2019-04-21T19:27:31.074Z,13.60
2019-04-21T19:30:13.536Z,13.30
2019-04-21T19:32:31.189Z,12.60
2019-04-21T19:34:46.473Z,12.30
2019-04-21T19:37:15.440Z,12.30
2019-04-21T19:39:56.475Z,12.40
2019-04-21T19:42:22.647Z,12.50
2019-04-21T19:44:56.367Z,12.40
2019-04-21T19:47:28.342Z,12.30
2019-04-21T19:50:01.457Z,12.30
2019-04-21T19:52:22.104Z,12.30
2019-04-21T19:54:42.646Z,12.20
2019-04-21T19:57:07.060Z,12.30
2019-04-21T19:59:41.726Z,12.20
2019-04-21T20:02:04.593Z,12.20
2019-04-21T20:04:38.512Z,12.10
2019-04-21T20:07:19.217Z,11.90
2019-04-21T20:09:45.080Z,11.60
2019-04-21T20:12:22.091Z,11.40
2019-04-21T20:15:04.943Z,11.40
2019-04-21T20:17:11.207Z,11.30
2019-04-21T20:19:26.906Z,11.30
2019-04-21T20:21:54.246Z,11.30
2019-04-21T20:24:26.540Z,11.40
2019-04-21T20:27:00.064Z,11.20
2019-04-21T20:29:37.438Z,11.00
2019-04-21T20:32:10.579Z,10.70
2019-04-21T20:34:38.619Z,10.60
2019-04-21T20:37:09.195Z,10.50
2019-04-21T20:39:21.293Z,10.40
2019-04-21T20:41:56.252Z,10.20
2019-04-21T20:44:29.870Z,10.10
2019-04-21T20:46:59.870Z,10.00
2019-04-21T20:49:23.089Z,10.10
2019-04-21T20:52:03.603Z,10.30
2019-04-21T20:54:30.203Z,10.30
2019-04-21T20:57:02.722Z,10.40
2019-04-21T20:59:25.065Z,10.30
2019-04-21T21:01:59.905Z,10.20
2019-04-21T21:04:21.851Z,10.00
2019-04-21T21:06:52.563Z,9.90
2019-04-21T21:09:18.350Z,9.60
2019-04-21T21:12:09.953Z,9.40
2019-04-21T21:14:26.313Z,9.10
2019-04-21T21:17:00.166Z,9.10
2019-04-21T21:19:42.051Z,9.10
2019-04-21T21:21:48.568Z,9.20
2019-04-21T21:24:21.774Z,9.20
2019-04-21T21:26:49.637Z,9.20
2019-04-21T21:29:21.366Z,9.20
2019-04-21T21:31:46.025Z,9.10
2019-04-21T21:34:25.994Z,9.00
2019-04-21T21:36:49.440Z,8.90
2019-04-21T21:39:18.399Z,8.80
2019-04-21T21:41:33.650Z,8.90
2019-04-21T21:44:01.775Z,8.90
2019-04-21T21:46:40.316Z,8.80
2019-04-21T21:49:04.058Z,8.70
2019-04-21T21:51:39.562Z,8.60
2019-04-21T21:53:52.666Z,8.50
2019-04-21T21:56:20.595Z,8.50
2019-04-21T21:58:48.416Z,8.30
2019-04-21T22:01:23.024Z,8.00
2019-04-21T22:03:48.808Z,7.90
2019-04-21T22:06:20.473Z,7.70
2019-04-21T22:08:46.120Z,7.70
2019-04-21T22:11:13.724Z,7.70
2019-04-21T22:13:47.540Z,7.70
2019-04-21T22:16:14.432Z,7.70
2019-04-21T22:19:03.526Z,7.80
2019-04-21T22:21:18.903Z,7.80
2019-04-21T22:23:51.523Z,7.70
2019-04-21T22:26:07.558Z,7.50
2019-04-21T22:28:35.934Z,7.50
2019-04-21T22:31:08.140Z,7.40
2019-04-21T22:33:44.298Z,7.40
2019-04-21T22:36:09.861Z,7.40
2019-04-21T22:38:44.592Z,7.20
2019-04-21T22:41:11.941Z,7.10
2019-04-21T22:43:36.611Z,7.00
2019-04-21T22:45:59.115Z,7.10
2019-04-21T22:48:28.906Z,7.00
2019-04-21T22:50:56.731Z,7.00
2019-04-21T22:53:29.292Z,7.10
2019-04-21T22:55:58.649Z,7.00
2019-04-21T22:58:25.936Z,7.10
2019-04-21T23:00:56.200Z,7.20
2019-04-21T23:03:24.612Z,7.20
2019-04-21T23:05:51.873Z,7.20
2019-04-21T23:08:29.234Z,7.30
2019-04-21T23:10:57.044Z,7.30
2019-04-21T23:13:21.926Z,7.10
2019-04-21T23:15:53.226Z,7.00
2019-04-21T23:18:30.801Z,6.90
2019-04-21T23:21:03.504Z,6.70
2019-04-21T23:23:38.405Z,6.70
2019-04-21T23:26:01.287Z,6.80
2019-04-21T23:28:34.592Z,6.80
2019-04-21T23:31:04.655Z,6.70
2019-04-21T23:33:14.296Z,6.70
2019-04-21T23:35:42.417Z,6.80
2019-04-21T23:38:10.591Z,6.80
2019-04-21T23:40:39.742Z,6.80
2019-04-21T23:43:13.339Z,6.80
2019-04-21T23:45:39.828Z,6.70
2019-04-21T23:48:18.544Z,6.70
2019-04-21T23:50:45.831Z,6.70
2019-04-21T23:53:03.643Z,6.60
2019-04-21T23:55:31.514Z,6.70
2019-04-21T23:58:07.083Z,6.60
